createdAt,value
2019-01-04T00:00:54.410Z,0.00
2019-01-04T00:01:54.413Z,0.00
2019-01-04T00:02:54.388Z,0.00
2019-01-04T00:03:54.374Z,0.00
2019-01-04T00:04:54.385Z,0.00
2019-01-04T00:05:54.355Z,0.00
2019-01-04T00:06:54.365Z,0.00
2019-01-04T00:07:54.347Z,0.00
2019-01-04T00:08:54.321Z,0.00
2019-01-04T00:09:54.311Z,0.00
2019-01-04T00:10:54.301Z,0.00
2019-01-04T00:11:54.589Z,0.00
2019-01-04T00:12:54.289Z,0.00
2019-01-04T00:13:54.268Z,0.00
2019-01-04T00:14:54.263Z,0.00
2019-01-04T00:15:54.251Z,0.00
2019-01-04T00:16:54.236Z,0.00
2019-01-04T00:17:54.238Z,0.00
2019-01-04T00:18:54.220Z,0.00
2019-01-04T00:19:54.208Z,0.00
2019-01-04T00:20:54.187Z,0.00
2019-01-04T00:21:54.185Z,0.00
2019-01-04T00:22:54.185Z,0.00
2019-01-04T00:23:54.161Z,0.00
2019-01-04T00:24:54.154Z,0.00
2019-01-04T00:25:54.139Z,0.00
2019-01-04T00:26:54.127Z,0.00
2019-01-04T00:27:54.134Z,0.00
2019-01-04T00:28:54.107Z,0.00
2019-01-04T00:29:54.096Z,0.00
2019-01-04T00:30:54.087Z,0.00
2019-01-04T00:31:54.093Z,0.00
2019-01-04T00:32:54.098Z,0.00
2019-01-04T00:33:54.053Z,0.00
2019-01-04T00:34:54.046Z,0.00
2019-01-04T00:35:54.035Z,0.00
2019-01-04T00:36:54.022Z,0.00
2019-01-04T00:37:54.026Z,0.00
2019-01-04T00:38:54.002Z,0.00
2019-01-04T00:39:53.992Z,0.00
2019-01-04T00:40:53.974Z,0.00
2019-01-04T00:41:53.962Z,0.00
2019-01-04T00:42:53.968Z,0.00
2019-01-04T00:43:53.942Z,0.00
2019-01-04T00:44:53.935Z,0.00
2019-01-04T00:45:53.920Z,0.00
2019-01-04T00:46:53.909Z,0.00
2019-01-04T00:47:53.932Z,0.00
2019-01-04T00:48:53.898Z,0.00
2019-01-04T00:49:53.875Z,0.00
2019-01-04T00:50:53.872Z,0.00
2019-01-04T00:51:53.854Z,0.00
2019-01-04T00:52:53.841Z,0.00
2019-01-04T00:53:53.845Z,0.00
2019-01-04T00:54:53.821Z,0.00
2019-01-04T00:55:53.811Z,0.00
2019-01-04T00:56:53.801Z,0.00
2019-01-04T00:57:53.790Z,0.00
2019-01-04T00:58:53.788Z,0.00
2019-01-04T00:59:53.777Z,0.00
2019-01-04T01:00:53.762Z,0.00
2019-01-04T01:01:53.746Z,0.00
2019-01-04T01:02:53.736Z,0.00
2019-01-04T01:03:53.738Z,0.00
2019-01-04T01:04:53.715Z,0.00
2019-01-04T01:05:53.708Z,0.00
2019-01-04T01:06:53.692Z,0.00
2019-01-04T01:07:53.682Z,0.00
2019-01-04T01:08:53.684Z,0.00
2019-01-04T01:09:53.663Z,0.00
2019-01-04T01:10:53.654Z,0.00
2019-01-04T01:11:53.639Z,0.00
2019-01-04T01:12:53.627Z,0.00
2019-01-04T01:13:53.630Z,0.00
2019-01-04T01:14:53.607Z,0.00
2019-01-04T01:15:53.606Z,0.00
2019-01-04T01:16:53.597Z,0.00
2019-01-04T01:17:53.577Z,0.00
2019-01-04T01:18:53.574Z,0.00
2019-01-04T01:19:53.567Z,0.00
2019-01-04T01:20:53.542Z,0.00
2019-01-04T01:21:53.532Z,0.00
2019-01-04T01:22:53.520Z,0.00
2019-01-04T01:23:53.523Z,0.00
2019-01-04T01:24:53.506Z,0.00
2019-01-04T01:25:53.491Z,0.00
2019-01-04T01:26:53.478Z,0.00
2019-01-04T01:27:53.468Z,0.00
2019-01-04T01:28:53.505Z,0.00
2019-01-04T01:29:53.447Z,0.00
2019-01-04T01:31:02.569Z,0.00
2019-01-04T01:31:53.428Z,0.00
2019-01-04T01:33:02.601Z,0.00
2019-01-04T01:34:02.194Z,0.00
2019-01-04T01:34:53.397Z,0.00
2019-01-04T01:35:53.383Z,0.00
2019-01-04T01:36:53.372Z,0.00
2019-01-04T01:37:53.365Z,0.00
2019-01-04T01:38:53.377Z,0.00
2019-01-04T01:39:53.342Z,0.00
2019-01-04T01:40:53.345Z,0.00
2019-01-04T01:41:53.359Z,0.00
2019-01-04T01:43:02.764Z,0.00
2019-01-04T01:43:53.399Z,0.00
2019-01-04T01:44:53.323Z,0.00
2019-01-04T01:45:53.321Z,0.00
2019-01-04T01:46:53.278Z,0.00
2019-01-04T01:47:53.260Z,0.00
2019-01-04T01:48:53.306Z,0.00
2019-01-04T01:49:53.264Z,0.00
2019-01-04T01:50:53.237Z,0.00
2019-01-04T01:51:53.267Z,0.00
2019-01-04T01:52:53.214Z,0.00
2019-01-04T01:53:53.226Z,0.00
2019-01-04T01:54:53.238Z,0.00
2019-01-04T01:55:53.185Z,0.00
2019-01-04T01:56:53.211Z,0.00
2019-01-04T01:57:53.155Z,0.00
2019-01-04T01:58:53.158Z,0.00
2019-01-04T01:59:53.189Z,0.00
2019-01-04T02:00:53.143Z,0.00
2019-01-04T02:01:53.158Z,0.00
2019-01-04T02:02:53.152Z,0.00
2019-01-04T02:03:53.103Z,0.00
2019-01-04T02:04:53.194Z,0.00
2019-01-04T02:05:53.077Z,0.00
2019-01-04T02:06:53.061Z,0.00
2019-01-04T02:07:53.078Z,0.00
2019-01-04T02:09:07.238Z,0.00
2019-01-04T02:10:01.777Z,0.00
2019-01-04T02:10:53.028Z,0.00
2019-01-04T02:11:53.043Z,0.00
2019-01-04T02:12:53.034Z,0.00
2019-01-04T02:13:53.046Z,0.00
2019-01-04T02:14:53.027Z,0.00
2019-01-04T02:15:52.976Z,0.00
2019-01-04T02:16:55.182Z,0.00
2019-01-04T02:17:52.940Z,0.00
2019-01-04T02:18:52.969Z,0.00
2019-01-04T02:19:52.940Z,0.00
2019-01-04T02:20:52.912Z,0.00
2019-01-04T02:21:52.897Z,0.00
2019-01-04T02:22:52.887Z,0.00
2019-01-04T02:23:52.878Z,0.00
2019-01-04T02:24:52.880Z,0.00
2019-01-04T02:25:52.854Z,0.00
2019-01-04T02:26:52.843Z,0.00
2019-01-04T02:27:52.835Z,0.00
2019-01-04T02:28:52.818Z,0.00
2019-01-04T02:29:52.823Z,0.00
2019-01-04T02:31:00.755Z,0.00
2019-01-04T02:32:03.429Z,0.00
2019-01-04T02:33:02.315Z,0.00
2019-01-04T02:34:01.844Z,0.00
2019-01-04T02:34:52.795Z,0.00
2019-01-04T02:35:52.756Z,0.00
2019-01-04T02:36:52.741Z,0.00
2019-01-04T02:37:52.745Z,0.00
2019-01-04T02:38:52.746Z,0.00
2019-01-04T02:39:52.737Z,0.00
2019-01-04T02:40:52.688Z,0.00
2019-01-04T02:41:52.686Z,0.00
2019-01-04T02:43:01.801Z,0.00
2019-01-04T02:43:52.654Z,0.00
2019-01-04T02:44:52.645Z,0.00
2019-01-04T02:45:52.652Z,0.00
2019-01-04T02:46:52.622Z,0.00
2019-01-04T02:47:52.612Z,0.00
2019-01-04T02:48:52.608Z,0.00
2019-01-04T02:49:52.591Z,0.00
2019-01-04T02:50:52.606Z,0.00
2019-01-04T02:51:52.571Z,0.00
2019-01-04T02:52:52.559Z,0.00
2019-01-04T02:53:52.547Z,0.00
2019-01-04T02:54:52.557Z,0.00
2019-01-04T02:55:52.540Z,0.00
2019-01-04T02:56:52.515Z,0.00
2019-01-04T02:57:52.505Z,0.00
2019-01-04T02:58:52.494Z,0.00
2019-01-04T02:59:52.488Z,0.00
2019-01-04T03:00:52.485Z,0.00
2019-01-04T03:01:52.465Z,0.00
2019-01-04T03:02:52.456Z,0.00
2019-01-04T03:03:52.461Z,0.00
2019-01-04T03:04:52.431Z,0.00
2019-01-04T03:05:52.432Z,0.00
2019-01-04T03:06:52.428Z,0.00
2019-01-04T03:07:52.402Z,0.00
2019-01-04T03:08:52.396Z,0.00
2019-01-04T03:09:52.376Z,0.00
2019-01-04T03:10:52.380Z,0.00
2019-01-04T03:11:52.356Z,0.00
2019-01-04T03:12:52.345Z,0.00
2019-01-04T03:13:52.335Z,0.00
2019-01-04T03:14:52.328Z,0.00
2019-01-04T03:15:52.356Z,0.00
2019-01-04T03:16:52.315Z,0.00
2019-01-04T03:17:52.296Z,0.00
2019-01-04T03:18:52.285Z,0.00
2019-01-04T03:19:52.315Z,0.00
2019-01-04T03:20:52.260Z,0.00
2019-01-04T03:21:52.262Z,0.00
2019-01-04T03:22:52.239Z,0.00
2019-01-04T03:23:52.235Z,0.00
2019-01-04T03:24:52.219Z,0.00
2019-01-04T03:25:52.211Z,0.00
2019-01-04T03:26:52.207Z,0.00
2019-01-04T03:27:52.185Z,0.00
2019-01-04T03:28:52.192Z,0.00
2019-01-04T03:29:52.167Z,0.00
2019-01-04T03:30:54.304Z,0.00
2019-01-04T03:31:52.174Z,0.00
2019-01-04T03:32:52.138Z,0.00
2019-01-04T03:33:52.121Z,0.00
2019-01-04T03:34:52.109Z,0.00
2019-01-04T03:35:52.115Z,0.00
2019-01-04T03:36:52.100Z,0.00
2019-01-04T03:37:52.077Z,0.00
2019-01-04T03:38:52.070Z,0.00
2019-01-04T03:39:52.063Z,0.00
2019-01-04T03:40:52.062Z,0.00
2019-01-04T03:41:52.049Z,0.00
2019-01-04T03:42:52.029Z,0.00
2019-01-04T03:43:52.016Z,0.00
2019-01-04T03:44:52.006Z,0.00
2019-01-04T03:45:51.992Z,0.00
2019-01-04T03:46:51.994Z,0.00
2019-01-04T03:47:51.975Z,0.00
2019-01-04T03:48:51.969Z,0.00
2019-01-04T03:49:51.952Z,0.00
2019-01-04T03:50:51.954Z,0.00
2019-01-04T03:51:51.939Z,0.00
2019-01-04T03:52:51.921Z,0.00
2019-01-04T03:53:51.908Z,0.00
2019-01-04T03:54:51.906Z,0.00
2019-01-04T03:55:51.887Z,0.00
2019-01-04T03:56:51.887Z,0.00
2019-01-04T03:57:51.865Z,0.00
2019-01-04T03:58:51.863Z,0.00
2019-01-04T03:59:51.840Z,0.00
2019-01-04T04:00:51.829Z,0.00
2019-01-04T04:01:51.879Z,0.00
2019-01-04T04:02:51.812Z,0.00
2019-01-04T04:03:51.801Z,0.00
2019-01-04T04:04:51.788Z,0.00
2019-01-04T04:05:51.788Z,0.00
2019-01-04T04:06:51.767Z,0.00
2019-01-04T04:07:51.767Z,0.00
2019-01-04T04:08:51.749Z,0.00
2019-01-04T04:09:51.739Z,0.00
2019-01-04T04:10:51.730Z,0.00
2019-01-04T04:11:51.722Z,0.00
2019-01-04T04:12:51.715Z,0.00
2019-01-04T04:13:51.693Z,0.00
2019-01-04T04:14:51.688Z,0.00
2019-01-04T04:15:51.668Z,0.00
2019-01-04T04:16:51.663Z,0.00
2019-01-04T04:17:51.669Z,0.00
2019-01-04T04:18:51.641Z,0.00
2019-01-04T04:19:51.629Z,0.00
2019-01-04T04:20:51.617Z,0.00
2019-01-04T04:21:51.611Z,0.00
2019-01-04T04:22:51.610Z,0.00
2019-01-04T04:23:51.584Z,0.00
2019-01-04T04:24:51.574Z,0.00
2019-01-04T04:25:51.564Z,0.00
2019-01-04T04:26:51.553Z,0.00
2019-01-04T04:27:51.564Z,0.00
2019-01-04T04:28:51.538Z,0.00
2019-01-04T04:29:51.520Z,0.00
2019-01-04T04:30:51.515Z,0.00
2019-01-04T04:31:51.498Z,0.00
2019-01-04T04:32:51.490Z,0.00
2019-01-04T04:33:51.502Z,0.00
2019-01-04T04:34:51.467Z,0.00
2019-01-04T04:35:51.455Z,0.00
2019-01-04T04:36:51.447Z,0.00
2019-01-04T04:37:51.435Z,0.00
2019-01-04T04:38:51.452Z,0.00
2019-01-04T04:39:51.433Z,0.00
2019-01-04T04:40:51.407Z,0.00
2019-01-04T04:41:51.398Z,0.00
2019-01-04T04:42:51.381Z,0.00
2019-01-04T04:43:51.389Z,0.00
2019-01-04T04:44:51.364Z,0.00
2019-01-04T04:45:51.360Z,0.00
2019-01-04T04:46:51.337Z,0.00
2019-01-04T04:47:51.329Z,0.00
2019-01-04T04:48:51.335Z,0.00
2019-01-04T04:49:51.306Z,0.00
2019-01-04T04:50:51.300Z,0.00
2019-01-04T04:51:51.300Z,0.00
2019-01-04T04:52:51.275Z,0.00
2019-01-04T04:53:51.277Z,0.00
2019-01-04T04:54:51.254Z,0.00
2019-01-04T04:55:51.243Z,0.00
2019-01-04T04:56:51.240Z,0.00
2019-01-04T04:57:51.226Z,0.00
2019-01-04T04:58:51.247Z,0.00
2019-01-04T04:59:51.207Z,0.00
2019-01-04T05:00:51.195Z,0.00
2019-01-04T05:01:51.183Z,0.00
2019-01-04T05:02:51.172Z,0.00
2019-01-04T05:03:51.164Z,0.00
2019-01-04T05:04:51.160Z,0.00
2019-01-04T05:05:51.137Z,0.00
2019-01-04T05:06:51.129Z,0.00
2019-01-04T05:07:51.115Z,0.00
2019-01-04T05:08:51.112Z,0.00
2019-01-04T05:09:51.105Z,0.00
2019-01-04T05:10:51.083Z,0.00
2019-01-04T05:11:51.073Z,0.00
2019-01-04T05:12:51.060Z,0.00
2019-01-04T05:13:51.057Z,0.00
2019-01-04T05:14:51.055Z,0.00
2019-01-04T05:15:51.036Z,0.00
2019-01-04T05:16:51.025Z,0.00
2019-01-04T05:17:51.007Z,0.00
2019-01-04T05:18:51.006Z,0.00
2019-01-04T05:19:51.005Z,0.00
2019-01-04T05:20:50.975Z,0.00
2019-01-04T05:21:50.964Z,0.00
2019-01-04T05:22:50.959Z,0.00
2019-01-04T05:23:50.943Z,0.00
2019-01-04T05:24:50.951Z,0.00
2019-01-04T05:25:50.926Z,0.00
2019-01-04T05:26:50.911Z,0.00
2019-01-04T05:27:50.902Z,0.00
2019-01-04T05:28:50.890Z,0.00
2019-01-04T05:29:50.934Z,0.00
2019-01-04T05:30:50.870Z,0.00
2019-01-04T05:31:50.867Z,0.00
2019-01-04T05:32:50.847Z,0.00
2019-01-04T05:33:50.838Z,0.00
2019-01-04T05:34:50.828Z,0.00
2019-01-04T05:35:50.855Z,0.00
2019-01-04T05:36:50.811Z,0.00
2019-01-04T05:37:50.804Z,0.00
2019-01-04T05:38:50.786Z,0.00
2019-01-04T05:39:50.775Z,0.00
2019-01-04T05:40:50.775Z,0.00
2019-01-04T05:41:50.751Z,0.00
2019-01-04T05:42:50.743Z,0.00
2019-01-04T05:43:50.731Z,0.00
2019-01-04T05:44:50.718Z,0.00
2019-01-04T05:45:50.721Z,0.00
2019-01-04T05:46:50.697Z,0.00
2019-01-04T05:47:50.698Z,0.00
2019-01-04T05:48:50.683Z,0.00
2019-01-04T05:49:50.672Z,0.00
2019-01-04T05:50:50.667Z,0.00
2019-01-04T05:51:50.647Z,0.00
2019-01-04T05:52:50.638Z,0.00
2019-01-04T05:53:50.629Z,0.00
2019-01-04T05:54:50.630Z,0.00
2019-01-04T05:55:50.613Z,0.00
2019-01-04T05:56:50.602Z,0.00
2019-01-04T05:57:50.583Z,0.00
2019-01-04T05:58:50.568Z,0.00
2019-01-04T05:59:50.559Z,0.00
2019-01-04T06:00:50.569Z,0.00
2019-01-04T06:01:50.540Z,0.00
2019-01-04T06:02:50.548Z,0.00
2019-01-04T06:03:50.517Z,0.00
2019-01-04T06:04:50.505Z,0.00
2019-01-04T06:05:50.509Z,0.00
2019-01-04T06:06:50.484Z,0.00
2019-01-04T06:07:50.472Z,0.00
2019-01-04T06:08:50.462Z,0.00
2019-01-04T06:09:50.451Z,0.00
2019-01-04T06:10:50.444Z,0.00
2019-01-04T06:11:50.450Z,0.00
2019-01-04T06:12:50.422Z,0.00
2019-01-04T06:13:50.409Z,0.00
2019-01-04T06:14:50.401Z,0.00
2019-01-04T06:15:50.390Z,0.00
2019-01-04T06:16:50.436Z,0.00
2019-01-04T06:17:50.385Z,0.00
2019-01-04T06:18:50.359Z,0.00
2019-01-04T06:19:50.344Z,0.00
2019-01-04T06:20:50.335Z,0.00
2019-01-04T06:21:50.344Z,0.00
2019-01-04T06:22:50.315Z,0.00
2019-01-04T06:23:50.299Z,0.00
2019-01-04T06:24:50.295Z,0.00
2019-01-04T06:25:50.279Z,0.00
2019-01-04T06:26:50.309Z,0.00
2019-01-04T06:27:50.262Z,0.00
2019-01-04T06:28:50.256Z,0.00
2019-01-04T06:29:50.236Z,0.00
2019-01-04T06:30:50.225Z,0.00
2019-01-04T06:31:50.213Z,0.00
2019-01-04T06:32:50.217Z,0.00
2019-01-04T06:33:50.202Z,0.00
2019-01-04T06:34:50.195Z,0.00
2019-01-04T06:35:50.171Z,0.00
2019-01-04T06:36:50.161Z,0.00
2019-01-04T06:37:50.163Z,0.00
2019-01-04T06:38:50.139Z,0.00
2019-01-04T06:39:50.139Z,0.00
2019-01-04T06:40:50.121Z,0.00
2019-01-04T06:41:50.110Z,0.00
2019-01-04T06:42:50.113Z,0.00
2019-01-04T06:43:50.103Z,0.00
2019-01-04T06:44:50.078Z,0.00
2019-01-04T06:45:50.068Z,0.00
2019-01-04T06:46:50.059Z,0.00
2019-01-04T06:47:50.055Z,0.00
2019-01-04T06:48:50.035Z,0.00
2019-01-04T06:49:50.024Z,0.00
2019-01-04T06:50:50.012Z,0.00
2019-01-04T06:51:50.015Z,0.00
2019-01-04T06:52:50.001Z,0.00
2019-01-04T06:53:49.981Z,0.00
2019-01-04T06:54:49.969Z,0.00
2019-01-04T06:55:49.962Z,0.00
2019-01-04T06:56:49.953Z,0.00
2019-01-04T06:57:49.959Z,0.00
2019-01-04T06:58:49.928Z,0.00
2019-01-04T06:59:49.915Z,0.00
2019-01-04T07:00:49.906Z,0.00
2019-01-04T07:01:49.895Z,0.00
2019-01-04T07:02:49.898Z,0.00
2019-01-04T07:03:49.874Z,0.00
2019-01-04T07:04:49.861Z,0.00
2019-01-04T07:05:49.859Z,0.00
2019-01-04T07:06:49.842Z,0.00
2019-01-04T07:07:49.829Z,0.00
2019-01-04T07:08:49.835Z,0.00
2019-01-04T07:09:50.340Z,0.00
2019-01-04T07:10:49.806Z,0.00
2019-01-04T07:11:49.793Z,0.00
2019-01-04T07:12:49.776Z,0.00
2019-01-04T07:13:49.784Z,0.00
2019-01-04T07:14:49.771Z,0.00
2019-01-04T07:15:49.747Z,0.00
2019-01-04T07:16:49.740Z,0.00
2019-01-04T07:17:49.724Z,0.00
2019-01-04T07:18:49.731Z,0.00
2019-01-04T07:19:49.701Z,0.00
2019-01-04T07:20:49.693Z,0.00
2019-01-04T07:21:49.681Z,0.00
2019-01-04T07:22:49.672Z,0.00
2019-01-04T07:23:49.674Z,0.00
2019-01-04T07:24:49.651Z,0.00
2019-01-04T07:25:49.637Z,0.00
2019-01-04T07:26:49.627Z,0.00
2019-01-04T07:27:49.616Z,0.00
2019-01-04T07:28:49.615Z,0.00
2019-01-04T07:29:49.593Z,0.00
2019-01-04T07:30:49.583Z,0.00
2019-01-04T07:31:49.581Z,0.00
2019-01-04T07:32:49.561Z,0.00
2019-01-04T07:33:49.562Z,0.00
2019-01-04T07:34:49.546Z,0.00
2019-01-04T07:35:49.528Z,0.00
2019-01-04T07:36:49.524Z,0.00
2019-01-04T07:37:49.506Z,0.00
2019-01-04T07:38:49.527Z,0.00
2019-01-04T07:39:49.485Z,0.00
2019-01-04T07:40:49.476Z,0.00
2019-01-04T07:41:49.463Z,0.00
2019-01-04T07:42:49.453Z,0.00
2019-01-04T07:43:49.442Z,0.00
2019-01-04T07:44:49.446Z,0.00
2019-01-04T07:45:49.421Z,0.00
2019-01-04T07:46:49.408Z,0.00
2019-01-04T07:47:49.398Z,0.00
2019-01-04T07:48:49.405Z,0.00
2019-01-04T07:49:49.391Z,0.00
2019-01-04T07:50:49.368Z,0.00
2019-01-04T07:51:49.357Z,0.00
2019-01-04T07:52:49.347Z,0.00
2019-01-04T07:53:49.339Z,0.00
2019-01-04T07:54:49.341Z,0.00
2019-01-04T07:55:49.315Z,0.00
2019-01-04T07:56:49.311Z,0.00
2019-01-04T07:57:49.292Z,0.00
2019-01-04T07:58:49.281Z,0.00
2019-01-04T07:59:49.282Z,0.00
2019-01-04T08:00:49.260Z,0.00
2019-01-04T08:01:49.255Z,5.62
2019-01-04T08:02:49.240Z,5.62
2019-01-04T08:03:49.233Z,5.62
2019-01-04T08:04:49.228Z,5.62
2019-01-04T08:05:49.210Z,5.62
2019-01-04T08:06:49.243Z,5.62
2019-01-04T08:07:49.185Z,5.62
2019-01-04T08:08:49.174Z,5.62
2019-01-04T08:09:49.174Z,5.62
2019-01-04T08:10:49.154Z,5.62
2019-01-04T08:11:49.151Z,5.62
2019-01-04T08:12:49.133Z,5.62
2019-01-04T08:13:49.121Z,5.62
2019-01-04T08:14:49.122Z,5.62
2019-01-04T08:15:49.104Z,5.62
2019-01-04T08:16:49.095Z,5.62
2019-01-04T08:17:49.077Z,5.62
2019-01-04T08:18:49.067Z,5.62
2019-01-04T08:19:49.124Z,11.25
2019-01-04T08:20:49.118Z,11.25
2019-01-04T08:21:49.035Z,11.25
2019-01-04T08:22:49.024Z,11.25
2019-01-04T08:23:49.106Z,11.25
2019-01-04T08:24:49.012Z,11.25
2019-01-04T08:25:49.006Z,11.25
2019-01-04T08:26:48.981Z,11.25
2019-01-04T08:27:48.972Z,11.25
2019-01-04T08:28:48.963Z,11.25
2019-01-04T08:29:48.950Z,5.62
2019-01-04T08:30:48.949Z,5.62
2019-01-04T08:31:48.927Z,5.62
2019-01-04T08:32:48.919Z,5.62
2019-01-04T08:33:48.910Z,5.62
2019-01-04T08:34:48.900Z,5.62
2019-01-04T08:35:48.914Z,11.25
2019-01-04T08:36:48.875Z,5.62
2019-01-04T08:37:48.871Z,5.62
2019-01-04T08:38:48.855Z,5.62
2019-01-04T08:39:48.842Z,5.62
2019-01-04T08:40:48.915Z,5.62
2019-01-04T08:41:48.821Z,5.62
2019-01-04T08:42:48.821Z,5.62
2019-01-04T08:45:06.371Z,5.62
2019-01-04T08:46:06.374Z,5.62
2019-01-04T08:47:06.332Z,5.62
2019-01-04T08:48:06.326Z,11.25
2019-01-04T08:49:06.454Z,5.62
2019-01-04T08:50:06.304Z,5.62
2019-01-04T08:51:06.322Z,5.62
2019-01-04T08:52:06.276Z,11.25
2019-01-04T08:53:06.269Z,11.25
2019-01-04T08:54:06.394Z,11.25
2019-01-04T08:55:06.249Z,16.88
2019-01-04T08:56:06.268Z,16.88
2019-01-04T08:57:06.241Z,16.88
2019-01-04T08:58:06.216Z,16.88
2019-01-04T08:59:06.205Z,16.88
2019-01-04T09:00:06.209Z,16.88
2019-01-04T09:01:06.203Z,16.88
2019-01-04T09:02:06.190Z,16.88
2019-01-04T09:03:06.175Z,16.88
2019-01-04T09:04:06.157Z,11.25
2019-01-04T09:05:06.149Z,11.25
2019-01-04T09:06:06.161Z,11.25
2019-01-04T09:07:06.155Z,16.88
2019-01-04T09:08:06.120Z,22.50
2019-01-04T09:09:06.112Z,22.50
2019-01-04T09:10:06.143Z,22.50
2019-01-04T09:11:06.093Z,22.50
2019-01-04T09:12:06.096Z,22.50
2019-01-04T09:13:06.097Z,22.50
2019-01-04T09:14:06.058Z,28.12
2019-01-04T09:15:06.224Z,22.50
2019-01-04T09:16:06.038Z,22.50
2019-01-04T09:17:06.068Z,22.50
2019-01-04T09:18:06.038Z,28.12
2019-01-04T09:19:06.017Z,28.12
2019-01-04T09:20:06.009Z,33.75
2019-01-04T09:21:06.003Z,28.12
2019-01-04T09:22:05.990Z,28.12
2019-01-04T09:23:05.960Z,28.12
2019-01-04T09:24:05.945Z,22.50
2019-01-04T09:25:05.935Z,22.50
2019-01-04T09:26:05.929Z,22.50
2019-01-04T09:27:05.930Z,16.88
2019-01-04T09:28:05.901Z,22.50
2019-01-04T09:29:05.892Z,22.50
2019-01-04T09:30:05.878Z,22.50
2019-01-04T09:31:05.868Z,16.88
2019-01-04T09:32:05.872Z,16.88
2019-01-04T09:33:05.864Z,22.50
2019-01-04T09:34:05.836Z,22.50
2019-01-04T09:35:05.826Z,16.88
2019-01-04T09:36:05.826Z,16.88
2019-01-04T09:37:05.860Z,16.88
2019-01-04T09:38:05.800Z,16.88
2019-01-04T09:39:05.802Z,16.88
2019-01-04T09:40:05.780Z,16.88
2019-01-04T09:41:05.762Z,16.88
2019-01-04T09:42:05.757Z,16.88
2019-01-04T09:43:05.768Z,16.88
2019-01-04T09:44:05.736Z,16.88
2019-01-04T09:45:05.723Z,16.88
2019-01-04T09:46:05.709Z,16.88
2019-01-04T09:47:05.699Z,16.88
2019-01-04T09:48:05.699Z,16.88
2019-01-04T09:49:06.537Z,16.88
2019-01-04T09:50:05.669Z,16.88
2019-01-04T09:51:05.714Z,16.88
2019-01-04T09:52:05.658Z,16.88
2019-01-04T09:53:05.648Z,16.88
2019-01-04T09:54:05.628Z,16.88
2019-01-04T09:55:05.619Z,11.25
2019-01-04T09:56:05.615Z,11.25
2019-01-04T09:57:05.597Z,11.25
2019-01-04T09:58:05.608Z,11.25
2019-01-04T09:59:05.582Z,11.25
2019-01-04T10:00:05.560Z,11.25
2019-01-04T10:01:05.546Z,11.25
2019-01-04T10:02:05.534Z,16.88
2019-01-04T10:03:05.601Z,11.25
2019-01-04T10:04:05.515Z,11.25
2019-01-04T10:05:05.504Z,16.88
2019-01-04T10:06:05.493Z,11.25
2019-01-04T10:07:05.484Z,11.25
2019-01-04T10:08:05.500Z,16.88
2019-01-04T10:09:05.527Z,16.88
2019-01-04T10:10:05.569Z,16.88
2019-01-04T10:11:05.446Z,16.88
2019-01-04T10:12:05.438Z,16.88
2019-01-04T10:13:05.429Z,16.88
2019-01-04T10:14:05.428Z,16.88
2019-01-04T10:15:05.399Z,16.88
2019-01-04T10:16:05.386Z,16.88
2019-01-04T10:17:05.376Z,16.88
2019-01-04T10:18:05.366Z,16.88
2019-01-04T10:19:05.376Z,16.88
2019-01-04T10:20:05.347Z,22.50
2019-01-04T10:21:05.330Z,22.50
2019-01-04T10:22:05.327Z,16.88
2019-01-04T10:23:05.311Z,16.88
2019-01-04T10:24:05.317Z,16.88
2019-01-04T10:25:05.290Z,16.88
2019-01-04T10:26:05.286Z,16.88
2019-01-04T10:27:05.270Z,16.88
2019-01-04T10:28:05.260Z,16.88
2019-01-04T10:29:05.258Z,16.88
2019-01-04T10:30:05.237Z,16.88
2019-01-04T10:31:05.230Z,16.88
2019-01-04T10:32:05.214Z,16.88
2019-01-04T10:33:05.216Z,16.88
2019-01-04T10:34:05.216Z,16.88
2019-01-04T10:35:10.504Z,16.88
2019-01-04T10:36:06.178Z,16.88
2019-01-04T10:37:05.168Z,16.88
2019-01-04T10:38:05.155Z,16.88
2019-01-04T10:39:05.152Z,16.88
2019-01-04T10:40:10.890Z,16.88
2019-01-04T10:41:06.119Z,11.25
2019-01-04T10:42:05.122Z,11.25
2019-01-04T10:43:05.108Z,11.25
2019-01-04T10:44:05.134Z,11.25
2019-01-04T10:45:05.079Z,11.25
2019-01-04T10:46:05.072Z,11.25
2019-01-04T10:47:05.057Z,16.88
2019-01-04T10:48:05.064Z,16.88
2019-01-04T10:49:05.073Z,16.88
2019-01-04T10:50:05.027Z,22.50
2019-01-04T10:51:05.012Z,22.50
2019-01-04T10:52:05.006Z,22.50
2019-01-04T10:53:05.573Z,39.38
2019-01-04T10:54:05.011Z,22.50
2019-01-04T10:55:04.989Z,22.50
2019-01-04T10:56:04.960Z,22.50
2019-01-04T10:57:04.949Z,16.88
2019-01-04T10:58:06.009Z,22.50
2019-01-04T10:59:04.926Z,16.88
2019-01-04T11:00:04.930Z,16.88
2019-01-04T11:01:04.908Z,16.88
2019-01-04T11:02:04.898Z,16.88
2019-01-04T11:03:04.891Z,16.88
2019-01-04T11:04:04.873Z,16.88
2019-01-04T11:05:04.880Z,22.50
2019-01-04T11:06:04.861Z,16.88
2019-01-04T11:07:04.841Z,16.88
2019-01-04T11:08:04.833Z,16.88
2019-01-04T11:09:04.820Z,16.88
2019-01-04T11:10:04.825Z,16.88
2019-01-04T11:11:04.799Z,22.50
2019-01-04T11:12:04.799Z,22.50
2019-01-04T11:13:04.777Z,16.88
2019-01-04T11:14:04.769Z,22.50
2019-01-04T11:15:04.771Z,22.50
2019-01-04T11:16:04.750Z,22.50
2019-01-04T11:17:04.791Z,16.88
2019-01-04T11:18:09.859Z,16.88
2019-01-04T11:19:05.723Z,16.88
2019-01-04T11:20:13.674Z,16.88
2019-01-04T11:21:04.705Z,11.25
2019-01-04T11:22:04.689Z,11.25
2019-01-04T11:23:04.729Z,11.25
2019-01-04T11:24:05.572Z,16.88
2019-01-04T11:25:05.465Z,16.88
2019-01-04T11:26:04.706Z,11.25
2019-01-04T11:27:04.706Z,16.88
2019-01-04T11:28:05.662Z,16.88
2019-01-04T11:29:04.688Z,16.88
2019-01-04T11:30:04.645Z,11.25
2019-01-04T11:31:04.634Z,11.25
2019-01-04T11:32:04.642Z,11.25
2019-01-04T11:33:04.732Z,16.88
2019-01-04T11:34:04.558Z,16.88
2019-01-04T11:35:04.560Z,16.88
2019-01-04T11:36:04.681Z,16.88
2019-01-04T11:37:05.134Z,22.50
2019-01-04T11:38:04.552Z,22.50
2019-01-04T11:39:04.522Z,22.50
2019-01-04T11:40:04.503Z,22.50
2019-01-04T11:41:04.507Z,28.12
2019-01-04T11:42:04.479Z,28.12
2019-01-04T11:43:04.467Z,22.50
2019-01-04T11:44:04.463Z,22.50
2019-01-04T11:45:04.444Z,16.88
2019-01-04T11:46:04.689Z,22.50
2019-01-04T11:47:04.507Z,16.88
2019-01-04T11:48:04.413Z,16.88
2019-01-04T11:49:04.405Z,16.88
2019-01-04T11:50:04.389Z,22.50
2019-01-04T11:51:04.403Z,28.12
2019-01-04T11:52:04.371Z,28.12
2019-01-04T11:53:04.370Z,22.50
2019-01-04T11:54:04.349Z,22.50
2019-01-04T11:55:04.337Z,28.12
2019-01-04T11:56:04.350Z,16.88
2019-01-04T11:57:04.320Z,16.88
2019-01-04T11:58:04.305Z,16.88
2019-01-04T11:59:04.305Z,16.88
2019-01-04T12:00:04.284Z,16.88
2019-01-04T12:01:04.287Z,16.88
2019-01-04T12:02:04.266Z,16.88
2019-01-04T12:03:04.251Z,11.25
2019-01-04T12:04:04.243Z,16.88
2019-01-04T12:05:04.235Z,16.88
2019-01-04T12:06:04.260Z,16.88
2019-01-04T12:07:04.212Z,16.88
2019-01-04T12:08:04.259Z,22.50
2019-01-04T12:09:04.191Z,16.88
2019-01-04T12:10:04.224Z,16.88
2019-01-04T12:11:04.169Z,16.88
2019-01-04T12:12:04.169Z,11.25
2019-01-04T12:13:04.143Z,11.25
2019-01-04T12:14:04.135Z,11.25
2019-01-04T12:15:04.126Z,11.25
2019-01-04T12:16:04.113Z,11.25
2019-01-04T12:17:04.117Z,11.25
2019-01-04T12:18:04.091Z,11.25
2019-01-04T12:19:04.078Z,11.25
2019-01-04T12:20:04.064Z,11.25
2019-01-04T12:21:04.053Z,11.25
2019-01-04T12:22:04.057Z,11.25
2019-01-04T12:23:04.038Z,11.25
2019-01-04T12:24:04.025Z,5.62
2019-01-04T12:25:04.014Z,5.62
2019-01-04T12:26:04.000Z,5.62
2019-01-04T12:27:04.003Z,5.62
2019-01-04T12:28:03.988Z,5.62
2019-01-04T12:29:03.972Z,5.62
2019-01-04T12:30:03.964Z,5.62
2019-01-04T12:31:03.949Z,5.62
2019-01-04T12:32:03.989Z,5.62
2019-01-04T12:33:03.936Z,5.62
2019-01-04T12:34:03.917Z,5.62
2019-01-04T12:35:03.906Z,5.62
2019-01-04T12:36:03.896Z,5.62
2019-01-04T12:37:03.884Z,5.62
2019-01-04T12:38:03.883Z,5.62
2019-01-04T12:39:03.864Z,5.62
2019-01-04T12:40:03.853Z,11.25
2019-01-04T12:41:03.842Z,5.62
2019-01-04T12:42:03.832Z,5.62
2019-01-04T12:43:03.868Z,5.62
2019-01-04T12:44:03.809Z,5.62
2019-01-04T12:45:03.807Z,5.62
2019-01-04T12:46:03.805Z,5.62
2019-01-04T12:47:03.785Z,5.62
2019-01-04T12:48:03.790Z,5.62
2019-01-04T12:49:03.762Z,5.62
2019-01-04T12:50:03.747Z,5.62
2019-01-04T12:51:03.739Z,5.62
2019-01-04T12:52:03.731Z,5.62
2019-01-04T12:53:03.732Z,5.62
2019-01-04T12:54:03.702Z,5.62
2019-01-04T12:55:03.690Z,11.25
2019-01-04T12:56:03.684Z,11.25
2019-01-04T12:57:03.673Z,11.25
2019-01-04T12:58:03.675Z,5.62
2019-01-04T12:59:03.649Z,5.62
2019-01-04T13:00:03.638Z,5.62
2019-01-04T13:01:03.626Z,5.62
2019-01-04T13:02:03.617Z,5.62
2019-01-04T13:03:03.660Z,5.62
2019-01-04T13:04:03.595Z,5.62
2019-01-04T13:05:03.584Z,11.25
2019-01-04T13:06:03.574Z,11.25
2019-01-04T13:07:03.564Z,11.25
2019-01-04T13:08:03.551Z,11.25
2019-01-04T13:09:03.595Z,11.25
2019-01-04T13:10:03.531Z,11.25
2019-01-04T13:11:03.563Z,11.25
2019-01-04T13:12:03.511Z,11.25